createdAt,value
2018-05-07T00:00:25.867Z,2.87
2018-05-07T00:02:54.628Z,2.93
2018-05-07T00:05:22.959Z,3.07
2018-05-07T00:07:51.942Z,2.70
2018-05-07T00:10:19.809Z,3.60
2018-05-07T00:12:47.405Z,3.20
2018-05-07T00:15:15.004Z,3.00
2018-05-07T00:17:44.285Z,3.00
2018-05-07T00:20:11.865Z,3.23
2018-05-07T00:22:39.425Z,3.30
2018-05-07T00:25:08.345Z,3.10
2018-05-07T00:27:35.985Z,3.10
2018-05-07T00:30:04.996Z,3.37
2018-05-07T00:32:33.341Z,3.57
2018-05-07T00:35:00.922Z,3.17
2018-05-07T00:37:28.489Z,3.10
2018-05-07T00:39:56.082Z,3.60
2018-05-07T00:42:24.404Z,3.20
2018-05-07T00:44:51.988Z,3.60
2018-05-07T00:47:19.566Z,3.20
2018-05-07T00:49:47.230Z,3.53
2018-05-07T00:52:14.802Z,3.70
2018-05-07T00:55:03.979Z,3.60
2018-05-07T00:57:32.316Z,3.50
2018-05-07T00:59:59.896Z,3.80
2018-05-07T01:02:27.459Z,3.50
2018-05-07T01:04:55.061Z,3.70
2018-05-07T01:07:23.420Z,3.20
2018-05-07T01:09:51.003Z,3.73
2018-05-07T01:12:19.375Z,3.70
2018-05-07T01:14:47.746Z,3.50
2018-05-07T01:17:15.341Z,3.60
2018-05-07T01:19:43.697Z,3.90
2018-05-07T01:22:11.283Z,4.10
2018-05-07T01:24:39.610Z,4.33
2018-05-07T01:27:07.206Z,3.90
2018-05-07T01:29:34.800Z,3.50
2018-05-07T01:32:02.407Z,4.13
2018-05-07T01:34:29.974Z,3.77
2018-05-07T01:36:57.545Z,3.50
2018-05-07T01:39:25.112Z,3.47
2018-05-07T01:41:52.685Z,4.00
2018-05-07T01:44:20.261Z,3.60
2018-05-07T01:46:47.835Z,3.37
2018-05-07T01:49:15.389Z,3.60
2018-05-07T01:51:42.961Z,3.60
2018-05-07T01:54:10.556Z,3.73
2018-05-07T01:56:38.127Z,3.30
2018-05-07T01:59:05.720Z,3.47
2018-05-07T02:01:33.307Z,3.20
2018-05-07T02:04:00.900Z,3.47
2018-05-07T02:06:29.234Z,3.67
2018-05-07T02:08:56.821Z,4.00
2018-05-07T02:11:24.372Z,3.53
2018-05-07T02:13:51.962Z,4.00
2018-05-07T02:16:19.550Z,4.10
2018-05-07T02:18:47.914Z,4.10
2018-05-07T02:21:15.488Z,3.90
2018-05-07T02:23:43.823Z,3.93
2018-05-07T02:26:11.391Z,4.00
2018-05-07T02:28:38.963Z,4.10
2018-05-07T02:31:06.539Z,4.13
2018-05-07T02:33:34.122Z,4.57
2018-05-07T02:36:02.483Z,3.97
2018-05-07T02:38:30.123Z,4.30
2018-05-07T02:40:57.729Z,4.00
2018-05-07T02:43:26.128Z,4.10
2018-05-07T02:45:54.460Z,4.07
2018-05-07T02:48:22.026Z,4.03
2018-05-07T02:50:49.619Z,4.33
2018-05-07T02:53:17.196Z,4.70
2018-05-07T02:55:45.563Z,4.03
2018-05-07T02:58:13.148Z,4.30
2018-05-07T03:00:41.485Z,4.17
2018-05-07T03:03:09.080Z,3.93
2018-05-07T03:05:36.664Z,4.20
2018-05-07T03:08:05.516Z,4.60
2018-05-07T03:10:33.897Z,4.67
2018-05-07T03:13:01.486Z,4.43
2018-05-07T03:15:29.072Z,4.90
2018-05-07T03:17:57.150Z,4.30
2018-05-07T03:20:25.736Z,4.87
2018-05-07T03:22:54.071Z,4.10
2018-05-07T03:25:21.650Z,4.43
2018-05-07T03:27:49.215Z,4.60
2018-05-07T03:30:17.576Z,4.93
2018-05-07T03:32:45.139Z,4.47
2018-05-07T03:35:12.711Z,4.50
2018-05-07T03:37:40.286Z,4.57
2018-05-07T03:40:07.869Z,4.90
2018-05-07T03:42:35.435Z,4.30
2018-05-07T03:45:03.000Z,4.90
2018-05-07T03:47:30.576Z,5.00
2018-05-07T03:49:58.914Z,5.13
2018-05-07T03:52:26.494Z,4.97
2018-05-07T03:54:54.071Z,4.67
2018-05-07T03:57:21.634Z,5.23
2018-05-07T03:59:49.218Z,5.10
2018-05-07T04:02:17.557Z,5.17
2018-05-07T04:04:45.117Z,5.20
2018-05-07T04:07:12.679Z,4.90
2018-05-07T04:09:40.260Z,5.33
2018-05-07T04:12:08.710Z,5.20
2018-05-07T04:14:36.285Z,4.97
2018-05-07T04:17:25.487Z,4.93
2018-05-07T04:20:04.869Z,4.83
2018-05-07T04:22:44.330Z,4.67
2018-05-07T04:25:11.903Z,4.97
2018-05-07T04:27:40.262Z,5.07
2018-05-07T04:30:07.829Z,5.30
2018-05-07T04:32:35.410Z,4.90
2018-05-07T04:35:02.996Z,5.30
2018-05-07T04:37:30.588Z,5.20
2018-05-07T04:39:58.187Z,5.00
2018-05-07T04:42:25.754Z,5.47
2018-05-07T04:44:53.310Z,4.83
2018-05-07T04:47:20.897Z,4.93
2018-05-07T04:49:48.879Z,4.67
2018-05-07T04:52:16.468Z,5.27
2018-05-07T04:54:44.047Z,5.00
2018-05-07T04:57:12.407Z,4.80
2018-05-07T04:59:40.658Z,5.07
2018-05-07T05:02:09.072Z,4.73
2018-05-07T05:04:36.714Z,4.83
2018-05-07T05:07:04.336Z,4.23
2018-05-07T05:09:31.934Z,4.70
2018-05-07T05:11:59.504Z,4.90
2018-05-07T05:14:27.650Z,4.60
2018-05-07T05:16:55.220Z,4.53
2018-05-07T05:19:22.798Z,4.77
2018-05-07T05:21:50.380Z,4.60
2018-05-07T05:24:17.984Z,4.20
2018-05-07T05:26:45.557Z,4.33
2018-05-07T05:29:14.003Z,4.40
2018-05-07T05:31:41.595Z,4.87
2018-05-07T05:34:09.157Z,4.63
2018-05-07T05:36:36.735Z,4.57
2018-05-07T05:39:06.787Z,4.40
2018-05-07T05:41:34.361Z,4.40
2018-05-07T05:44:01.937Z,4.40
2018-05-07T05:46:29.554Z,4.47
2018-05-07T05:48:57.886Z,4.43
2018-05-07T05:51:25.464Z,4.77
2018-05-07T05:53:53.044Z,5.00
2018-05-07T05:56:20.684Z,4.77
2018-05-07T05:58:48.852Z,4.60
2018-05-07T06:01:16.434Z,4.93
2018-05-07T06:03:44.704Z,4.80
2018-05-07T06:06:12.975Z,4.77
2018-05-07T06:08:40.787Z,4.80
2018-05-07T06:11:08.371Z,5.00
2018-05-07T06:13:36.771Z,5.00
2018-05-07T06:16:04.421Z,4.87
2018-05-07T06:18:32.007Z,4.83
2018-05-07T06:20:59.626Z,5.23
2018-05-07T06:23:27.233Z,4.73
2018-05-07T06:25:54.822Z,4.70
2018-05-07T06:28:22.400Z,4.53
2018-05-07T06:30:49.980Z,4.97
2018-05-07T06:33:18.002Z,4.67
2018-05-07T06:35:45.616Z,4.27
2018-05-07T06:38:13.826Z,4.90
2018-05-07T06:40:42.140Z,4.50
2018-05-07T06:43:09.726Z,5.30
2018-05-07T06:45:37.368Z,5.00
2018-05-07T06:48:05.095Z,5.10
2018-05-07T06:50:32.681Z,5.17
2018-05-07T06:53:00.274Z,4.83
2018-05-07T06:55:27.860Z,5.00
2018-05-07T06:57:55.453Z,5.60
2018-05-07T07:00:23.141Z,5.40
2018-05-07T07:02:50.893Z,5.20
2018-05-07T07:05:18.362Z,4.47
2018-05-07T07:07:45.962Z,4.70
2018-05-07T07:10:13.578Z,4.77
2018-05-07T07:12:41.205Z,4.10
2018-05-07T07:15:08.783Z,3.70
2018-05-07T07:17:36.362Z,3.80
2018-05-07T07:20:03.958Z,3.30
2018-05-07T07:22:32.294Z,3.47
2018-05-07T07:24:59.916Z,3.37
2018-05-07T07:27:27.521Z,3.20
2018-05-07T07:29:55.133Z,3.43
2018-05-07T07:32:23.489Z,3.57
2018-05-07T07:34:51.098Z,3.83
2018-05-07T07:37:18.749Z,3.77
2018-05-07T07:39:46.276Z,3.93
2018-05-07T07:42:13.893Z,4.47
2018-05-07T07:44:41.487Z,4.10
2018-05-07T07:47:09.080Z,4.60
2018-05-07T07:49:36.648Z,4.73
2018-05-07T07:52:04.285Z,3.90
2018-05-07T07:54:31.862Z,4.80
2018-05-07T07:56:59.434Z,4.80
2018-05-07T07:59:27.044Z,5.10
2018-05-07T08:01:55.426Z,5.20
2018-05-07T08:04:23.056Z,5.47
2018-05-07T08:06:50.676Z,5.27
2018-05-07T08:09:18.295Z,5.43
2018-05-07T08:11:45.912Z,5.40
2018-05-07T08:14:13.508Z,5.40
2018-05-07T08:16:42.277Z,6.30
2018-05-07T08:19:09.872Z,5.53
2018-05-07T08:21:37.459Z,5.63
2018-05-07T08:24:05.056Z,5.30
2018-05-07T08:26:32.637Z,5.37
2018-05-07T08:29:00.219Z,5.07
2018-05-07T08:31:28.613Z,5.80
2018-05-07T08:33:56.191Z,5.93
2018-05-07T08:36:24.605Z,5.60
2018-05-07T08:38:53.642Z,5.20
2018-05-07T08:41:21.228Z,5.40
2018-05-07T08:43:48.834Z,5.03
2018-05-07T08:46:17.740Z,5.23
2018-05-07T08:48:45.327Z,5.20
2018-05-07T08:51:12.930Z,4.90
2018-05-07T08:53:41.313Z,5.03
2018-05-07T08:56:08.895Z,5.40
2018-05-07T08:58:37.277Z,5.10
2018-05-07T09:01:04.855Z,5.37
2018-05-07T09:03:32.461Z,5.53
2018-05-07T09:06:01.996Z,5.00
2018-05-07T09:08:29.603Z,5.07
2018-05-07T09:10:57.221Z,5.00
2018-05-07T09:13:25.613Z,4.77
2018-05-07T09:15:53.280Z,4.77
2018-05-07T09:18:20.866Z,5.00
2018-05-07T09:20:50.290Z,5.50
2018-05-07T09:23:17.874Z,5.00
2018-05-07T09:25:45.472Z,5.47
2018-05-07T09:28:13.073Z,5.40
2018-05-07T09:30:40.722Z,5.03
2018-05-07T09:33:09.165Z,5.30
2018-05-07T09:35:36.757Z,5.10
2018-05-07T09:38:12.905Z,4.80
2018-05-07T09:40:40.621Z,5.37
2018-05-07T09:43:08.250Z,6.10
2018-05-07T09:45:36.695Z,5.93
2018-05-07T09:48:04.285Z,5.80
2018-05-07T09:50:31.863Z,5.83
2018-05-07T09:52:59.493Z,5.60
2018-05-07T09:55:27.083Z,5.73
2018-05-07T09:58:02.698Z,6.27
2018-05-07T10:00:34.705Z,6.60
2018-05-07T10:03:02.337Z,6.63
2018-05-07T10:05:29.946Z,6.60
2018-05-07T10:07:57.570Z,5.90
2018-05-07T10:10:25.189Z,5.93
2018-05-07T10:12:53.550Z,5.77
2018-05-07T10:15:21.160Z,5.73
2018-05-07T10:17:48.770Z,5.30
2018-05-07T10:20:16.404Z,5.20
2018-05-07T10:22:44.068Z,4.43
2018-05-07T10:25:11.658Z,4.20
2018-05-07T10:27:39.254Z,4.70
2018-05-07T10:30:06.865Z,5.67
2018-05-07T10:32:34.485Z,5.40
2018-05-07T10:35:02.116Z,4.40
2018-05-07T10:37:29.729Z,5.20
2018-05-07T10:39:57.339Z,4.67
2018-05-07T10:42:24.929Z,4.47
2018-05-07T10:44:52.517Z,4.13
2018-05-07T10:47:20.863Z,3.90
2018-05-07T10:49:48.445Z,4.10
2018-05-07T10:52:16.047Z,4.03
2018-05-07T10:54:43.619Z,3.77
2018-05-07T10:57:11.233Z,3.80
2018-05-07T10:59:38.793Z,2.50
2018-05-07T11:02:06.354Z,2.57
2018-05-07T11:04:33.930Z,3.30
2018-05-07T11:07:01.497Z,3.77
2018-05-07T11:09:29.078Z,3.90
2018-05-07T11:11:57.438Z,2.70
2018-05-07T11:14:25.034Z,2.50
2018-05-07T11:16:53.398Z,2.77
2018-05-07T11:19:20.954Z,3.83
2018-05-07T11:21:48.543Z,3.30
2018-05-07T11:24:16.960Z,3.60
2018-05-07T11:26:44.525Z,2.60
2018-05-07T11:29:12.123Z,2.67
2018-05-07T11:31:39.711Z,3.90
2018-05-07T11:34:07.295Z,3.90
2018-05-07T11:36:34.888Z,3.93
2018-05-07T11:39:02.524Z,3.17
2018-05-07T11:41:30.113Z,3.60
2018-05-07T11:43:57.692Z,3.50
2018-05-07T11:46:25.333Z,3.80
2018-05-07T11:48:52.933Z,4.37
2018-05-07T11:51:20.533Z,4.37
2018-05-07T11:53:48.924Z,3.90
2018-05-07T11:56:16.530Z,3.83
2018-05-07T11:58:44.138Z,3.53
2018-05-07T12:01:12.503Z,3.77
2018-05-07T12:03:40.885Z,4.00
2018-05-07T12:06:08.437Z,4.30
2018-05-07T12:08:36.039Z,4.67
2018-05-07T12:11:04.395Z,4.87
2018-05-07T12:13:32.869Z,4.00
2018-05-07T12:16:00.515Z,4.57
2018-05-07T12:18:28.843Z,4.30
2018-05-07T12:20:56.500Z,4.60
2018-05-07T12:23:24.058Z,3.70
2018-05-07T12:25:51.620Z,4.30
2018-05-07T12:28:19.184Z,4.20
2018-05-07T12:30:46.761Z,3.77
2018-05-07T12:33:14.340Z,4.10
2018-05-07T12:35:42.723Z,4.60
2018-05-07T12:38:11.072Z,4.30
2018-05-07T12:40:38.646Z,5.60
2018-05-07T12:43:06.212Z,5.83
2018-05-07T12:45:33.891Z,5.30
2018-05-07T12:48:01.523Z,5.53
2018-05-07T12:50:29.115Z,5.00
2018-05-07T12:52:56.745Z,5.90
2018-05-07T12:55:24.353Z,6.07
2018-05-07T12:57:51.974Z,5.13
2018-05-07T13:00:19.531Z,5.40
2018-05-07T13:02:47.096Z,5.63
2018-05-07T13:05:15.484Z,4.73
2018-05-07T13:07:43.089Z,4.37
2018-05-07T13:10:10.680Z,4.50
2018-05-07T13:12:39.716Z,4.20
2018-05-07T13:15:07.397Z,3.90
2018-05-07T13:17:35.785Z,4.03
2018-05-07T13:20:03.394Z,3.97
2018-05-07T13:22:31.516Z,3.70
2018-05-07T13:24:59.091Z,3.63
2018-05-07T13:27:26.667Z,4.50
2018-05-07T13:29:54.338Z,4.47
2018-05-07T13:32:21.983Z,4.23
2018-05-07T13:34:49.550Z,4.77
2018-05-07T13:37:17.153Z,4.93
2018-05-07T13:39:45.525Z,4.80
2018-05-07T13:42:13.112Z,4.60
2018-05-07T13:44:40.683Z,4.63
2018-05-07T13:47:08.295Z,5.20
2018-05-07T13:49:35.867Z,4.60
2018-05-07T13:52:03.428Z,4.73
2018-05-07T13:54:31.017Z,4.33
2018-05-07T13:56:59.479Z,4.63
2018-05-07T13:59:26.964Z,4.50
2018-05-07T14:01:55.328Z,4.00
2018-05-07T14:04:22.900Z,4.20
2018-05-07T14:06:50.465Z,4.83
2018-05-07T14:09:18.069Z,4.10
2018-05-07T14:11:45.637Z,4.60
2018-05-07T14:14:13.227Z,6.83
2018-05-07T14:16:40.921Z,5.87
2018-05-07T14:19:08.464Z,7.20
2018-05-07T14:21:36.088Z,7.37
2018-05-07T14:24:03.718Z,7.27
2018-05-07T14:26:31.285Z,6.13
2018-05-07T14:28:59.667Z,6.00
2018-05-07T14:31:27.232Z,5.53
2018-05-07T14:33:54.799Z,6.13
2018-05-07T14:36:22.390Z,6.03
2018-05-07T14:38:50.114Z,5.87
2018-05-07T14:41:18.394Z,5.40
2018-05-07T14:43:45.986Z,4.20
2018-05-07T14:46:14.248Z,4.83
2018-05-07T14:48:41.844Z,3.97
2018-05-07T14:51:09.436Z,4.00
2018-05-07T14:53:37.788Z,4.37
2018-05-07T14:56:05.416Z,3.97
2018-05-07T14:58:33.019Z,3.40
2018-05-07T15:01:01.361Z,3.57
2018-05-07T15:03:28.943Z,3.80
2018-05-07T15:05:56.575Z,3.67
2018-05-07T15:08:24.129Z,3.80
2018-05-07T15:10:51.698Z,3.73
2018-05-07T15:13:19.334Z,3.20
2018-05-07T15:15:46.859Z,3.40
2018-05-07T15:18:14.437Z,4.03
2018-05-07T15:20:42.073Z,3.10
2018-05-07T15:23:09.658Z,3.00
2018-05-07T15:25:37.243Z,2.30
2018-05-07T15:28:05.606Z,2.00
2018-05-07T15:30:33.229Z,2.87
2018-05-07T15:33:00.804Z,2.77
2018-05-07T15:35:28.394Z,2.60
2018-05-07T15:37:56.004Z,2.73
2018-05-07T15:40:23.570Z,2.70
2018-05-07T15:42:51.168Z,2.80
2018-05-07T15:45:18.749Z,2.53
2018-05-07T15:47:46.350Z,2.50
2018-05-07T15:50:14.673Z,3.80
2018-05-07T15:52:42.242Z,4.80
2018-05-07T15:55:09.856Z,2.80
2018-05-07T15:57:38.197Z,2.70
2018-05-07T16:00:05.837Z,2.50
2018-05-07T16:02:33.501Z,2.62
2018-05-07T16:05:01.075Z,2.53
2018-05-07T16:07:28.671Z,2.12
2018-05-07T16:09:56.292Z,2.50
2018-05-07T16:12:23.911Z,2.45
2018-05-07T16:14:51.493Z,2.50
2018-05-07T16:17:19.116Z,2.03
2018-05-07T16:19:46.689Z,2.30
2018-05-07T16:22:14.383Z,6.23
2018-05-07T16:24:41.876Z,8.00
2018-05-07T16:27:09.459Z,11.83
2018-05-07T16:29:37.343Z,2.30
2018-05-07T16:32:04.953Z,2.10
2018-05-07T16:34:33.312Z,2.30
2018-05-07T16:37:00.917Z,1.83
2018-05-07T16:39:28.563Z,2.33
2018-05-07T16:41:56.989Z,2.17
2018-05-07T16:44:25.317Z,2.07
2018-05-07T16:46:52.891Z,1.80
2018-05-07T16:49:20.463Z,2.10
2018-05-07T16:51:49.267Z,2.30
2018-05-07T16:54:16.882Z,2.30
2018-05-07T16:56:44.436Z,2.10
2018-05-07T16:59:12.008Z,2.07
2018-05-07T17:01:39.608Z,2.23
2018-05-07T17:04:07.955Z,2.40
2018-05-07T17:06:35.523Z,2.20
2018-05-07T17:09:03.151Z,1.90
2018-05-07T17:11:30.726Z,2.17
2018-05-07T17:13:59.056Z,2.10
2018-05-07T17:16:26.629Z,2.10
2018-05-07T17:18:54.989Z,2.43
2018-05-07T17:21:22.599Z,2.20
2018-05-07T17:23:50.179Z,2.00
2018-05-07T17:26:18.456Z,1.83
2018-05-07T17:28:46.060Z,2.00
2018-05-07T17:31:13.669Z,2.00
2018-05-07T17:33:42.111Z,1.93
2018-05-07T17:36:09.595Z,1.90
2018-05-07T17:38:37.181Z,2.40
2018-05-07T17:41:04.817Z,2.00
2018-05-07T17:43:33.618Z,2.10
2018-05-07T17:46:13.080Z,1.93
2018-05-07T17:48:52.683Z,2.17
2018-05-07T17:51:20.272Z,2.10
2018-05-07T17:53:48.610Z,2.10
2018-05-07T17:56:16.182Z,2.10
2018-05-07T17:58:43.780Z,2.07
2018-05-07T18:01:12.147Z,2.33
2018-05-07T18:03:39.737Z,2.23
2018-05-07T18:06:07.319Z,2.00
2018-05-07T18:08:34.914Z,2.10
2018-05-07T18:11:02.487Z,2.13
2018-05-07T18:13:30.072Z,2.27
2018-05-07T18:15:57.674Z,2.70
2018-05-07T18:18:25.252Z,2.23
2018-05-07T18:20:53.534Z,2.20
2018-05-07T18:23:21.232Z,2.07
2018-05-07T18:25:48.838Z,2.57
2018-05-07T18:28:17.204Z,2.20
2018-05-07T18:30:45.547Z,2.20
2018-05-07T18:33:13.140Z,2.27
2018-05-07T18:35:40.723Z,2.30
2018-05-07T18:38:09.116Z,3.00
2018-05-07T18:40:36.680Z,2.70
2018-05-07T18:43:05.113Z,2.70
2018-05-07T18:45:32.692Z,2.53
2018-05-07T18:48:00.275Z,2.60
2018-05-07T18:50:28.629Z,2.60
2018-05-07T18:52:56.231Z,2.53
2018-05-07T18:55:24.600Z,2.87
2018-05-07T18:57:52.170Z,2.80
2018-05-07T19:00:19.746Z,2.60
2018-05-07T19:02:48.127Z,3.10
2018-05-07T19:05:15.724Z,2.60
2018-05-07T19:07:43.404Z,3.00
2018-05-07T19:10:11.757Z,2.67
2018-05-07T19:12:39.341Z,2.73
2018-05-07T19:15:07.014Z,2.67
2018-05-07T19:17:34.604Z,2.83
2018-05-07T19:20:02.251Z,2.90
2018-05-07T19:22:29.819Z,3.00
2018-05-07T19:24:57.415Z,2.70
2018-05-07T19:27:25.058Z,2.70
2018-05-07T19:29:52.731Z,2.90
2018-05-07T19:32:20.335Z,2.57
2018-05-07T19:34:49.283Z,2.60
2018-05-07T19:37:16.876Z,2.83
2018-05-07T19:39:44.484Z,2.70
2018-05-07T19:42:12.066Z,2.93
2018-05-07T19:44:39.647Z,2.87
2018-05-07T19:47:07.222Z,3.03
2018-05-07T19:49:34.833Z,3.47
2018-05-07T19:52:02.424Z,3.27
2018-05-07T19:54:30.012Z,2.83
2018-05-07T19:56:57.565Z,4.13
2018-05-07T19:59:25.166Z,3.67
2018-05-07T20:01:52.795Z,3.63
2018-05-07T20:04:20.382Z,3.37
2018-05-07T20:06:48.024Z,2.97
2018-05-07T20:09:15.689Z,3.50
2018-05-07T20:11:43.277Z,3.13
2018-05-07T20:14:10.909Z,3.00
2018-05-07T20:16:38.511Z,2.80
2018-05-07T20:19:06.141Z,3.07
2018-05-07T20:21:33.729Z,3.00
2018-05-07T20:24:01.305Z,3.47
2018-05-07T20:26:28.916Z,3.03
2018-05-07T20:28:56.544Z,2.80
2018-05-07T20:31:24.142Z,3.10
2018-05-07T20:33:52.503Z,2.93
2018-05-07T20:36:20.086Z,3.20
2018-05-07T20:38:48.438Z,3.20
2018-05-07T20:41:16.034Z,3.13
2018-05-07T20:43:44.409Z,3.00
2018-05-07T20:46:12.024Z,3.50
2018-05-07T20:48:39.604Z,3.20
2018-05-07T20:51:07.191Z,3.23
2018-05-07T20:53:34.809Z,3.50
2018-05-07T20:56:02.420Z,3.33
2018-05-07T20:58:30.011Z,3.37
2018-05-07T21:00:57.615Z,3.40
2018-05-07T21:03:25.191Z,3.30
2018-05-07T21:05:52.868Z,3.50
2018-05-07T21:08:20.661Z,3.50
2018-05-07T21:10:49.596Z,3.83
2018-05-07T21:13:17.242Z,3.60
2018-05-07T21:15:44.840Z,3.30
2018-05-07T21:18:12.438Z,3.47
2018-05-07T21:20:40.024Z,3.77
2018-05-07T21:23:08.396Z,3.50
2018-05-07T21:25:36.006Z,3.13
2018-05-07T21:28:04.492Z,3.07
2018-05-07T21:30:32.064Z,2.90
2018-05-07T21:32:59.660Z,2.83
2018-05-07T21:35:27.258Z,3.13
2018-05-07T21:37:54.875Z,2.97
2018-05-07T21:40:22.783Z,3.10
2018-05-07T21:42:50.387Z,3.10
2018-05-07T21:45:18.034Z,3.37
2018-05-07T21:47:46.604Z,2.90
2018-05-07T21:50:14.202Z,2.93
2018-05-07T21:52:41.834Z,3.37
2018-05-07T21:55:09.439Z,3.07
2018-05-07T21:57:37.025Z,2.87
2018-05-07T22:00:04.701Z,2.90
2018-05-07T22:02:32.311Z,3.30
2018-05-07T22:04:59.930Z,3.20
2018-05-07T22:07:27.628Z,2.73
2018-05-07T22:09:56.002Z,3.20
2018-05-07T22:12:23.612Z,3.30
2018-05-07T22:14:51.294Z,3.13
2018-05-07T22:17:18.873Z,3.40
2018-05-07T22:19:46.486Z,3.10
2018-05-07T22:22:14.865Z,3.20
2018-05-07T22:24:43.239Z,3.30
2018-05-07T22:27:11.617Z,3.27
2018-05-07T22:29:39.923Z,3.20
2018-05-07T22:32:08.301Z,3.10
2018-05-07T22:34:36.623Z,3.20
2018-05-07T22:37:04.186Z,2.87
2018-05-07T22:39:31.773Z,3.00
2018-05-07T22:41:59.362Z,3.07
2018-05-07T22:44:26.949Z,3.43
2018-05-07T22:46:54.521Z,3.00
2018-05-07T22:49:22.113Z,2.80
2018-05-07T22:51:50.556Z,3.20
2018-05-07T22:54:18.147Z,3.40
2018-05-07T22:56:46.630Z,2.90
2018-05-07T22:59:14.230Z,3.40
2018-05-07T23:01:41.826Z,3.27
2018-05-07T23:04:10.184Z,2.87
2018-05-07T23:06:37.756Z,3.03
2018-05-07T23:09:05.371Z,3.20
2018-05-07T23:11:32.953Z,3.10
2018-05-07T23:14:00.606Z,3.00
2018-05-07T23:16:28.218Z,2.60
2018-05-07T23:18:55.812Z,2.90
2018-05-07T23:21:24.137Z,3.10
2018-05-07T23:23:51.711Z,3.20
2018-05-07T23:26:19.333Z,3.10
2018-05-07T23:28:46.923Z,3.00
2018-05-07T23:31:14.501Z,3.20
2018-05-07T23:33:42.067Z,3.03
2018-05-07T23:36:09.669Z,3.00
2018-05-07T23:38:38.005Z,3.10
2018-05-07T23:41:05.584Z,2.77
2018-05-07T23:43:34.046Z,2.90
2018-05-07T23:46:01.641Z,2.83
2018-05-07T23:48:29.226Z,3.23
2018-05-07T23:50:56.808Z,3.27
2018-05-07T23:53:25.138Z,2.60
2018-05-07T23:55:53.489Z,2.80
2018-05-07T23:58:21.057Z,3.30
